Accueil
METAR-TAF:

METAR-TAF

Aéroports :

Aéroport de Shoreham

Brighton, Angleterre

latitude: 50-50N, longitude: 000-17W, altitude: 2 m

Observation

Le bulletin a été fait il y a 38 minutes, à 15:20 UTC
Vent 5 kt de sud-ouest
Température 4°C
Humidité 81%
Pression 1020 hPa
Visibilité 10 km ou plus
Nuages fragmentés à une hauteur de 1600 ft

METAR: EGKA 211520Z 23005KT 9999 BKN016 04/01 Q1020

Heure: 15:58 (15:58 UTC)

Prévision

Le bulletin a été fait il y a 1 heure et 58 minutes, à 14:00 UTC
Prévision valable du 21 à 15 UTC au 21 à 19 UTC
Vent 5 kt de direction variable
Visibilité 10 km ou plus
Nuages épars à une hauteur de 2500 ft
Probabilité 40%
du 21 à 15 UTC au 21 à 19 UTC
Visibilité: 8000 m

TAF: EGKA 211400Z 2115/2119 VRB05KT 9999 SCT025 PROB40 2115/2119 8000

Observations et prévisions météorologiques de plus de 4000 aéroports (messages METAR et TAF).

Les stations disponibles sont représentées par des disques jaunes et rouges sur la carte.

Passer la souris dessus pour voir le nom de la station.

Cliquer dessus pour voir les observations et prévisions météorologiques.

Pour changer de carte: cliquez sur les boutons verts avec une croix noire pour zoomer, sur le bouton vert avec un tiret pour effectuer un zoom arrière, ou sur les flèches vertes pour les cartes adjacentes.


METAR-TAF: